This is the latest recevied weather packets stored in our database for station/object WX4FUN-13. If no packets are shown the sender has not sent any weather packets the latest 10 day(s).
| Time | Temp. | Humidity | Pressure | Rain* | Wind** | Luminosity | Snow |
|---|---|---|---|---|---|---|---|
| 1777394266 | 21.11° C | 39% | 1020.9 hPa | 0 mm | - | 881 W/m² | - |
| 1777393664 | 20.56° C | 38% | 1020.8 hPa | 0 mm | - | 676 W/m² | - |
| 1777393063 | 20° C | 40% | 1021 hPa | 0 mm | - | 494 W/m² | - |
| 1777392465 | 19.44° C | 41% | 1021 hPa | 0 mm | - | 429 W/m² | - |
| 1777391865 | 20° C | 41% | 1021.1 hPa | 0 mm | - | 370 W/m² | - |
| 1777391265 | 20.56° C | 41% | 1021.2 hPa | 0 mm | - | 229 W/m² | - |
| 1777390665 | 20.56° C | 39% | 1021.3 hPa | 0 mm | - | 243 W/m² | - |
| 1777390060 | 19.44° C | 40% | 1021.6 hPa | 0 mm | - | 806 W/m² | - |
| 1777389461 | 18.89° C | 41% | 1021.6 hPa | 0 mm | - | 814 W/m² | - |
| 1777388860 | 19.44° C | 41% | 1021.8 hPa | 0 mm | - | 798 W/m² | - |
| 1777388259 | 20° C | 40% | 1022 hPa | 0 mm | - | 797 W/m² | - |
| 1777387660 | 19.44° C | 41% | 1022.1 hPa | 0 mm | - | 747 W/m² | - |
| 1777387058 | 18.33° C | 44% | 1022.3 hPa | 0 mm | - | 748 W/m² | - |
| 1777386459 | 17.22° C | 47% | 1022.2 hPa | 0 mm | - | 724 W/m² | - |
| 1777385860 | 17.22° C | 48% | 1022.4 hPa | 0 mm | - | 706 W/m² | - |
| 1777385259 | 17.78° C | 48% | 1022.5 hPa | 0 mm | - | 358 W/m² | - |
| 1777384656 | 16.67° C | 50% | 1022.6 hPa | 0 mm | - | 652 W/m² | - |
| 1777384055 | 16.67° C | 49% | 1022.4 hPa | 0 mm | - | 623 W/m² | - |
| 1777383455 | 16.11° C | 50% | 1022.4 hPa | 0 mm | - | 587 W/m² | - |
| 1777382852 | 15° C | 53% | 1022.6 hPa | 0 mm | - | 565 W/m² | - |
| 1777382250 | 14.44° C | 55% | 1022.7 hPa | 0 mm | - | 529 W/m² | - |
| 1777381650 | 14.44° C | 55% | 1022.7 hPa | 0 mm | - | 510 W/m² | - |
| 1777381050 | 15° C | 54% | 1022.9 hPa | 0 mm | - | 479 W/m² | - |
| 1777380450 | 13.33° C | 59% | 1022.9 hPa | 0 mm | - | 444 W/m² | - |
| 1777379851 | 13.89° C | 59% | 1023 hPa | 0 mm | - | 346 W/m² | - |
* Rain latest hour (hover to see other rain measurements)
** Current wind speed in m/s (hover to see current wind gust speed)